createdAt,value
2022-10-18T00:00:05.531Z,16.44
2022-10-18T00:01:05.543Z,16.45
2022-10-18T00:02:05.632Z,16.48
2022-10-18T00:03:05.533Z,16.49
2022-10-18T00:04:05.482Z,16.50
2022-10-18T00:05:05.505Z,16.50
2022-10-18T00:06:05.504Z,16.52
2022-10-18T00:07:05.460Z,16.53
2022-10-18T00:08:05.474Z,16.55
2022-10-18T00:09:05.432Z,16.56
2022-10-18T00:10:05.436Z,16.55
2022-10-18T00:11:05.414Z,16.55
2022-10-18T00:12:05.414Z,16.55
2022-10-18T00:13:05.412Z,16.55
2022-10-18T00:14:05.397Z,16.55
2022-10-18T00:15:05.375Z,16.55
2022-10-18T00:16:05.344Z,16.53
2022-10-18T00:17:05.346Z,16.53
2022-10-18T00:18:05.345Z,16.55
2022-10-18T00:19:05.319Z,16.56
2022-10-18T00:20:05.326Z,16.56
2022-10-18T00:21:05.298Z,16.55
2022-10-18T00:22:05.277Z,16.53
2022-10-18T00:23:05.278Z,16.52
2022-10-18T00:24:05.265Z,16.52
2022-10-18T00:25:05.287Z,16.50
2022-10-18T00:26:05.239Z,16.49
2022-10-18T00:27:05.274Z,16.49
2022-10-18T00:28:05.211Z,16.45
2022-10-18T00:29:05.209Z,16.44
2022-10-18T00:30:05.207Z,16.41
2022-10-18T00:31:05.209Z,16.41
2022-10-18T00:32:05.178Z,16.38
2022-10-18T00:33:05.157Z,16.38
2022-10-18T00:34:05.148Z,16.35
2022-10-18T00:35:05.141Z,16.34
2022-10-18T00:36:05.171Z,16.33
2022-10-18T00:37:05.111Z,16.33
2022-10-18T00:38:05.091Z,16.31
2022-10-18T00:39:05.099Z,16.30
2022-10-18T00:40:05.132Z,16.33
2022-10-18T00:41:05.092Z,16.31
2022-10-18T00:42:05.115Z,16.30
2022-10-18T00:43:05.045Z,16.27
2022-10-18T00:44:05.032Z,16.26
2022-10-18T00:45:05.032Z,16.26
2022-10-18T00:46:05.018Z,16.25
2022-10-18T00:47:05.004Z,16.25
2022-10-18T00:48:05.247Z,16.23
2022-10-18T00:49:04.971Z,16.25
2022-10-18T00:50:05.673Z,16.22
2022-10-18T00:51:04.963Z,16.22
2022-10-18T00:52:04.977Z,16.22
2022-10-18T00:53:04.955Z,16.22
2022-10-18T00:54:04.958Z,16.22
2022-10-18T00:55:04.933Z,16.20
2022-10-18T00:56:04.894Z,16.20
2022-10-18T00:57:04.882Z,16.20
2022-10-18T00:58:04.887Z,16.22
2022-10-18T00:59:04.870Z,16.22
2022-10-18T01:00:04.864Z,16.22
2022-10-18T01:01:04.845Z,16.22
2022-10-18T01:02:04.854Z,16.23
2022-10-18T01:03:04.818Z,16.22
2022-10-18T01:04:04.805Z,16.23
2022-10-18T01:05:04.786Z,16.23
2022-10-18T01:06:04.805Z,16.22
2022-10-18T01:07:04.777Z,16.20
2022-10-18T01:08:04.764Z,16.20
2022-10-18T01:09:04.740Z,16.20
2022-10-18T01:10:04.739Z,16.22
2022-10-18T01:11:04.707Z,16.20
2022-10-18T01:12:04.753Z,16.20
2022-10-18T01:13:04.695Z,16.20
2022-10-18T01:14:04.688Z,16.18
2022-10-18T01:15:04.679Z,16.18
2022-10-18T01:16:04.670Z,16.18
2022-10-18T01:17:04.648Z,16.18
2022-10-18T01:18:04.661Z,16.15
2022-10-18T01:19:04.621Z,16.15
2022-10-18T01:20:04.623Z,16.15
2022-10-18T01:21:04.599Z,16.14
2022-10-18T01:22:04.615Z,16.12
2022-10-18T01:23:04.595Z,16.14
2022-10-18T01:24:04.603Z,16.12
2022-10-18T01:25:04.594Z,16.11
2022-10-18T01:26:04.542Z,16.11
2022-10-18T01:27:04.543Z,16.12
2022-10-18T01:28:04.526Z,16.11
2022-10-18T01:29:04.575Z,16.11
2022-10-18T01:30:04.492Z,16.11
2022-10-18T01:31:04.483Z,16.09
2022-10-18T01:32:04.471Z,16.11
2022-10-18T01:33:04.459Z,16.12
2022-10-18T01:34:04.463Z,16.12
2022-10-18T01:35:04.473Z,16.14
2022-10-18T01:36:04.424Z,16.14
2022-10-18T01:37:04.413Z,16.15
2022-10-18T01:38:04.418Z,16.15
2022-10-18T01:39:04.392Z,16.15
2022-10-18T01:40:04.383Z,16.15
2022-10-18T01:41:04.429Z,16.16
2022-10-18T01:42:04.363Z,16.16
2022-10-18T01:43:04.377Z,16.16
2022-10-18T01:44:04.335Z,16.20
2022-10-18T01:45:04.333Z,16.22
2022-10-18T01:46:04.417Z,16.25
2022-10-18T01:47:04.294Z,16.25
2022-10-18T01:48:04.297Z,16.26
2022-10-18T01:49:04.280Z,16.27
2022-10-18T01:50:04.279Z,16.30
2022-10-18T01:51:04.270Z,16.31
2022-10-18T01:52:04.304Z,16.31
2022-10-18T01:53:04.227Z,16.31
2022-10-18T01:54:04.217Z,16.33
2022-10-18T01:55:04.206Z,16.34
2022-10-18T01:56:04.190Z,16.38
2022-10-18T01:57:04.653Z,16.38
2022-10-18T01:58:04.349Z,16.40
2022-10-18T01:59:04.185Z,16.37
2022-10-18T02:00:04.148Z,16.37
2022-10-18T02:01:04.244Z,16.34
2022-10-18T02:02:04.130Z,16.31
2022-10-18T02:03:04.167Z,16.30
2022-10-18T02:04:04.121Z,16.30
2022-10-18T02:05:04.090Z,16.30
2022-10-18T02:06:04.080Z,16.27
2022-10-18T02:07:04.075Z,16.27
2022-10-18T02:08:22.122Z,16.30
2022-10-18T02:09:05.082Z,16.30
2022-10-18T02:10:04.131Z,16.27
2022-10-18T02:11:04.032Z,16.26
2022-10-18T02:12:04.003Z,16.25
2022-10-18T02:13:04.000Z,16.26
2022-10-18T02:14:04.013Z,16.26
2022-10-18T02:15:03.992Z,16.25
2022-10-18T02:16:03.967Z,16.25
2022-10-18T02:17:03.949Z,16.26
2022-10-18T02:18:03.941Z,16.25
2022-10-18T02:19:03.963Z,16.25
2022-10-18T02:20:03.939Z,16.23
2022-10-18T02:21:03.894Z,16.22
2022-10-18T02:22:03.894Z,16.22
2022-10-18T02:23:03.878Z,16.22
2022-10-18T02:24:03.863Z,16.22
2022-10-18T02:25:03.881Z,16.25
2022-10-18T02:26:03.872Z,16.26
2022-10-18T02:27:03.851Z,16.25
2022-10-18T02:28:04.070Z,16.25
2022-10-18T02:29:03.806Z,16.26
2022-10-18T02:30:03.805Z,16.25
2022-10-18T02:31:03.795Z,16.26
2022-10-18T02:32:03.822Z,16.26
2022-10-18T02:33:03.786Z,16.25
2022-10-18T02:34:04.705Z,16.26
2022-10-18T02:35:03.748Z,16.26
2022-10-18T02:36:03.728Z,16.26
2022-10-18T02:37:03.728Z,16.30
2022-10-18T02:38:03.726Z,16.30
2022-10-18T02:39:03.709Z,16.30
2022-10-18T02:40:03.706Z,16.30
2022-10-18T02:41:03.739Z,16.27
2022-10-18T02:42:03.674Z,16.30
2022-10-18T02:43:04.579Z,16.31
2022-10-18T02:44:03.770Z,16.33
2022-10-18T02:45:03.665Z,16.37
2022-10-18T02:46:03.681Z,16.37
2022-10-18T02:47:03.681Z,16.35
2022-10-18T02:48:03.608Z,16.34
2022-10-18T02:49:03.687Z,16.33
2022-10-18T02:50:03.609Z,16.35
2022-10-18T02:51:03.647Z,16.34
2022-10-18T02:52:03.540Z,16.34
2022-10-18T02:53:03.538Z,16.34
2022-10-18T02:54:03.512Z,16.34
2022-10-18T02:55:03.500Z,16.34
2022-10-18T02:56:03.531Z,16.34
2022-10-18T02:57:03.482Z,16.34
2022-10-18T02:58:03.471Z,16.35
2022-10-18T02:59:03.462Z,16.35
2022-10-18T03:00:03.481Z,16.34
2022-10-18T03:01:03.440Z,16.35
2022-10-18T03:02:03.476Z,16.34
2022-10-18T03:03:03.416Z,16.34
2022-10-18T03:04:03.396Z,16.34
2022-10-18T03:05:03.393Z,16.34
2022-10-18T03:06:03.371Z,16.33
2022-10-18T03:07:03.363Z,16.31
2022-10-18T03:08:03.370Z,16.31
2022-10-18T03:09:03.333Z,16.30
2022-10-18T03:10:03.324Z,16.30
2022-10-18T03:11:03.392Z,16.30
2022-10-18T03:12:03.298Z,16.30
2022-10-18T03:13:03.341Z,16.30
2022-10-18T03:14:03.317Z,16.30
2022-10-18T03:15:03.269Z,16.31
2022-10-18T03:16:03.245Z,16.27
2022-10-18T03:17:03.245Z,16.30
2022-10-18T03:18:03.226Z,16.27
2022-10-18T03:19:03.266Z,16.30
2022-10-18T03:20:03.222Z,16.27
2022-10-18T03:21:03.196Z,16.30
2022-10-18T03:22:03.206Z,16.30
2022-10-18T03:23:03.177Z,16.30
2022-10-18T03:24:03.155Z,16.30
2022-10-18T03:25:03.183Z,16.27
2022-10-18T03:26:03.137Z,16.30
2022-10-18T03:27:03.136Z,16.33
2022-10-18T03:28:03.117Z,16.33
2022-10-18T03:29:03.157Z,16.35
2022-10-18T03:30:03.158Z,16.37
2022-10-18T03:31:03.110Z,16.41
2022-10-18T03:32:03.081Z,16.49
2022-10-18T03:33:03.048Z,16.49
2022-10-18T03:34:03.714Z,16.48
2022-10-18T03:35:03.041Z,16.49
2022-10-18T03:36:03.054Z,16.48
2022-10-18T03:37:04.821Z,16.50
2022-10-18T03:38:02.988Z,16.49
2022-10-18T03:39:03.029Z,16.48
2022-10-18T03:40:02.979Z,16.48
2022-10-18T03:41:02.969Z,16.48
2022-10-18T03:42:02.982Z,16.45
2022-10-18T03:43:02.968Z,16.48
2022-10-18T03:44:02.961Z,16.49
2022-10-18T03:45:02.951Z,16.49
2022-10-18T03:46:02.947Z,16.50
2022-10-18T03:47:02.991Z,16.52
2022-10-18T03:48:02.892Z,16.49
2022-10-18T03:49:02.952Z,16.45
2022-10-18T03:50:02.868Z,16.48
2022-10-18T03:51:02.911Z,16.42
2022-10-18T03:52:02.887Z,16.42
2022-10-18T03:53:02.909Z,16.42
2022-10-18T03:54:02.814Z,16.41
2022-10-18T03:55:02.817Z,16.40
2022-10-18T03:56:02.796Z,16.41
2022-10-18T03:57:02.775Z,16.42
2022-10-18T03:58:02.810Z,16.41
2022-10-18T03:59:02.777Z,16.44
2022-10-18T04:00:02.754Z,16.42
2022-10-18T04:01:02.743Z,16.44
2022-10-18T04:02:02.817Z,16.42
2022-10-18T04:03:02.742Z,16.41
2022-10-18T04:04:02.714Z,16.40
2022-10-18T04:05:02.678Z,16.40
2022-10-18T04:06:02.667Z,16.41
2022-10-18T04:07:03.587Z,16.44
2022-10-18T04:08:02.656Z,16.45
2022-10-18T04:09:04.270Z,16.42
2022-10-18T04:10:02.626Z,16.42
2022-10-18T04:11:02.734Z,16.40
2022-10-18T04:12:02.631Z,16.40
2022-10-18T04:13:02.638Z,16.37
2022-10-18T04:14:02.579Z,16.38
2022-10-18T04:15:02.587Z,16.37
2022-10-18T04:16:02.566Z,16.37
2022-10-18T04:17:02.581Z,16.38
2022-10-18T04:18:02.548Z,16.42
2022-10-18T04:19:02.535Z,16.41
2022-10-18T04:20:02.539Z,16.44
2022-10-18T04:21:02.490Z,16.42
2022-10-18T04:22:02.479Z,16.42
2022-10-18T04:23:02.566Z,16.42
2022-10-18T04:24:02.450Z,16.44
2022-10-18T04:25:02.449Z,16.45
2022-10-18T04:26:02.489Z,16.48
2022-10-18T04:27:02.410Z,16.44
2022-10-18T04:28:02.400Z,16.42
2022-10-18T04:29:02.578Z,16.42
2022-10-18T04:30:02.409Z,16.41
2022-10-18T04:31:02.400Z,16.41
2022-10-18T04:32:02.404Z,16.40
2022-10-18T04:33:02.342Z,16.37
2022-10-18T04:34:02.352Z,16.35
2022-10-18T04:35:02.336Z,16.35
2022-10-18T04:36:02.314Z,16.31
2022-10-18T04:37:02.334Z,16.33
2022-10-18T04:38:02.335Z,16.31
2022-10-18T04:39:02.274Z,16.33
2022-10-18T04:40:02.302Z,16.33
2022-10-18T04:41:02.253Z,16.34
2022-10-18T04:42:02.254Z,16.37
2022-10-18T04:43:02.246Z,16.37
2022-10-18T04:44:02.244Z,16.38
2022-10-18T04:45:02.214Z,16.40
2022-10-18T04:46:02.214Z,16.40
2022-10-18T04:47:02.184Z,16.38
2022-10-18T04:48:02.184Z,16.38
2022-10-18T04:49:02.157Z,16.41
2022-10-18T04:50:02.178Z,16.38
2022-10-18T04:51:02.153Z,16.38
2022-10-18T04:52:02.205Z,16.40
2022-10-18T04:53:02.166Z,16.37
2022-10-18T04:54:06.454Z,16.35
2022-10-18T04:55:02.964Z,16.34
2022-10-18T04:56:02.111Z,16.33
2022-10-18T04:57:02.185Z,16.27
2022-10-18T04:58:02.198Z,16.25
2022-10-18T04:59:02.046Z,16.23
2022-10-18T05:00:02.040Z,16.23
2022-10-18T05:01:02.077Z,16.25
2022-10-18T05:03:02.988Z,16.25
2022-10-18T05:04:02.000Z,16.26
2022-10-18T05:05:01.977Z,16.31
2022-10-18T05:06:02.693Z,16.33
2022-10-18T05:07:01.992Z,16.35
2022-10-18T05:08:01.945Z,16.37
2022-10-18T05:09:01.923Z,16.38
2022-10-18T05:10:01.945Z,16.41
2022-10-18T05:11:01.968Z,16.40
2022-10-18T05:12:01.926Z,16.40
2022-10-18T05:13:01.905Z,16.40
2022-10-18T05:14:01.911Z,16.40
2022-10-18T05:15:04.072Z,16.38
2022-10-18T05:16:01.840Z,16.40
2022-10-18T05:17:01.832Z,16.41
2022-10-18T05:18:01.831Z,16.41
2022-10-18T05:19:01.801Z,16.41
2022-10-18T05:20:01.857Z,16.42
2022-10-18T05:21:01.792Z,16.45
2022-10-18T05:22:01.767Z,16.45
2022-10-18T05:23:01.782Z,16.44
2022-10-18T05:24:01.761Z,16.45
2022-10-18T05:25:01.737Z,16.48
2022-10-18T05:26:01.725Z,16.50
2022-10-18T05:27:01.703Z,16.49
2022-10-18T05:28:10.513Z,16.49
2022-10-18T05:29:02.842Z,16.48
2022-10-18T05:30:04.691Z,16.48
2022-10-18T05:31:01.676Z,16.45
2022-10-18T05:32:01.655Z,16.45
2022-10-18T05:33:01.809Z,16.45
2022-10-18T05:34:02.132Z,16.44
2022-10-18T05:35:01.619Z,16.44
2022-10-18T05:36:01.604Z,16.40
2022-10-18T05:37:01.599Z,16.41
2022-10-18T05:38:01.588Z,16.41
2022-10-18T05:39:04.135Z,16.41
2022-10-18T05:40:01.685Z,16.40
2022-10-18T05:41:01.550Z,16.40
2022-10-18T05:42:01.540Z,16.38
2022-10-18T05:43:01.533Z,16.41
2022-10-18T05:44:01.568Z,16.40
2022-10-18T05:45:01.539Z,16.40
2022-10-18T05:46:01.563Z,16.40
2022-10-18T05:47:01.487Z,16.41
2022-10-18T05:48:01.494Z,16.42
2022-10-18T05:49:01.457Z,16.44
2022-10-18T05:50:01.487Z,16.42
2022-10-18T05:51:01.437Z,16.41
2022-10-18T05:52:01.461Z,16.42
2022-10-18T05:53:12.568Z,16.41
2022-10-18T05:54:02.401Z,16.42
2022-10-18T05:55:01.441Z,16.41
2022-10-18T05:56:01.389Z,16.40
2022-10-18T05:57:01.555Z,16.38
2022-10-18T05:58:01.363Z,16.37
2022-10-18T05:59:01.359Z,16.35
2022-10-18T06:00:01.341Z,16.35
2022-10-18T06:01:01.326Z,16.34
2022-10-18T06:02:01.321Z,16.34
2022-10-18T06:03:01.359Z,16.33
2022-10-18T06:04:01.292Z,16.33
2022-10-18T06:05:01.271Z,16.34
2022-10-18T06:06:01.267Z,16.34
2022-10-18T06:07:01.258Z,16.34
2022-10-18T06:08:01.571Z,16.35
2022-10-18T06:09:01.280Z,16.38
2022-10-18T06:10:01.236Z,16.41
2022-10-18T06:11:01.205Z,16.41
2022-10-18T06:12:01.215Z,16.41
2022-10-18T06:13:01.183Z,16.41
2022-10-18T06:14:01.192Z,16.40
2022-10-18T06:15:01.236Z,16.38
2022-10-18T06:16:01.145Z,16.37
2022-10-18T06:17:01.153Z,16.37
2022-10-18T06:18:01.124Z,16.37
2022-10-18T06:19:01.146Z,16.37
2022-10-18T06:20:01.142Z,16.41
2022-10-18T06:21:01.085Z,16.41
2022-10-18T06:22:01.081Z,16.40
2022-10-18T06:23:01.064Z,16.40
2022-10-18T06:24:01.056Z,16.41
2022-10-18T06:25:01.046Z,16.40
2022-10-18T06:26:01.184Z,16.40
2022-10-18T06:27:01.053Z,16.40
2022-10-18T06:28:01.027Z,16.41
2022-10-18T06:29:01.066Z,16.41
2022-10-18T06:30:00.997Z,16.42
2022-10-18T06:31:01.007Z,16.41
2022-10-18T06:32:00.999Z,16.41
2022-10-18T06:33:00.969Z,16.41
2022-10-18T06:34:00.962Z,16.41
2022-10-18T06:35:00.932Z,16.42
2022-10-18T06:36:00.920Z,16.42
2022-10-18T06:37:01.008Z,16.42
2022-10-18T06:38:00.889Z,16.42
2022-10-18T06:39:00.879Z,16.44
2022-10-18T06:40:00.881Z,16.41
2022-10-18T06:41:00.874Z,16.42
2022-10-18T06:42:00.850Z,16.40
2022-10-18T06:44:01.821Z,16.40
2022-10-18T06:45:00.821Z,16.38
2022-10-18T06:46:00.810Z,16.40
2022-10-18T06:47:00.826Z,16.40
2022-10-18T06:48:00.796Z,16.42
2022-10-18T06:49:00.801Z,16.45
2022-10-18T06:50:00.831Z,16.48
2022-10-18T06:51:00.752Z,16.49
2022-10-18T06:52:00.733Z,16.50
2022-10-18T06:53:00.723Z,16.50
2022-10-18T06:54:16.836Z,16.53
2022-10-18T06:55:04.132Z,16.55
2022-10-18T06:56:00.974Z,16.56
2022-10-18T06:57:00.686Z,16.58
2022-10-18T06:58:00.662Z,16.58
2022-10-18T06:59:00.658Z,16.59
2022-10-18T07:00:00.643Z,16.62
2022-10-18T07:01:00.654Z,16.62
2022-10-18T07:02:00.702Z,16.63
2022-10-18T07:03:00.644Z,16.67
2022-10-18T07:04:00.595Z,16.65
2022-10-18T07:05:01.622Z,16.68
2022-10-18T07:06:00.696Z,16.68
2022-10-18T07:07:00.556Z,16.70
2022-10-18T07:08:00.555Z,16.73
2022-10-18T07:09:00.536Z,16.73
2022-10-18T07:10:00.546Z,16.74
2022-10-18T07:11:00.518Z,16.73
2022-10-18T07:12:00.535Z,16.75
2022-10-18T07:13:26.970Z,16.75
2022-10-18T07:14:01.584Z,16.75
2022-10-18T07:15:00.477Z,16.78
2022-10-18T07:16:00.557Z,16.78
2022-10-18T07:17:00.448Z,16.80
2022-10-18T07:18:00.998Z,16.78
2022-10-18T07:19:00.417Z,16.78
2022-10-18T07:20:00.407Z,16.78
2022-10-18T07:21:00.434Z,16.78
2022-10-18T07:22:00.408Z,16.78
2022-10-18T07:23:00.409Z,16.78
2022-10-18T07:24:00.593Z,16.75
2022-10-18T07:25:00.366Z,16.77
2022-10-18T07:26:00.339Z,16.78
2022-10-18T07:27:00.329Z,16.77
2022-10-18T07:28:00.320Z,16.78
2022-10-18T07:29:00.686Z,16.78
2022-10-18T07:30:00.292Z,16.78
2022-10-18T07:31:03.719Z,16.78
2022-10-18T07:32:01.270Z,16.80
2022-10-18T07:33:00.413Z,16.78
2022-10-18T07:34:00.256Z,16.78
2022-10-18T07:35:00.440Z,16.80
2022-10-18T07:36:00.262Z,16.80
2022-10-18T07:37:00.222Z,16.83
2022-10-18T07:38:00.204Z,16.81
2022-10-18T07:39:00.204Z,16.81
2022-10-18T07:40:00.420Z,16.81
2022-10-18T07:41:00.214Z,16.85
2022-10-18T07:42:00.205Z,16.81
2022-10-18T07:43:04.512Z,16.81
2022-10-18T07:44:00.144Z,16.83
2022-10-18T07:45:00.134Z,16.85
2022-10-18T07:46:00.145Z,16.85
2022-10-18T07:47:00.095Z,16.88
2022-10-18T07:48:00.085Z,16.88
2022-10-18T07:49:00.088Z,16.90
2022-10-18T07:50:00.080Z,16.92
2022-10-18T07:51:00.068Z,16.95
2022-10-18T07:52:00.166Z,16.95
2022-10-18T07:53:00.299Z,16.96
2022-10-18T07:54:00.128Z,16.96
2022-10-18T07:55:00.842Z,17.00
2022-10-18T07:56:01.388Z,17.04
2022-10-18T07:57:00.005Z,17.06
2022-10-18T07:57:59.987Z,17.07
2022-10-18T07:58:59.965Z,17.07
2022-10-18T07:59:59.949Z,17.08
2022-10-18T08:00:59.957Z,17.13
2022-10-18T08:02:00.042Z,17.17
2022-10-18T08:02:59.947Z,17.20
2022-10-18T08:04:03.241Z,17.17
2022-10-18T08:05:00.896Z,17.17
2022-10-18T08:05:59.881Z,17.11
2022-10-18T08:06:59.882Z,17.10
2022-10-18T08:08:01.933Z,17.08
2022-10-18T08:08:59.882Z,17.04
2022-10-18T08:09:59.841Z,17.00
2022-10-18T08:10:59.830Z,17.00
2022-10-18T08:11:59.809Z,17.04
2022-10-18T08:13:00.249Z,17.03
2022-10-18T08:13:59.779Z,17.04
2022-10-18T08:14:59.868Z,17.03
2022-10-18T08:15:59.819Z,17.03
2022-10-18T08:16:59.751Z,17.00
2022-10-18T08:17:59.730Z,16.99
2022-10-18T08:18:59.723Z,16.99
2022-10-18T08:20:11.495Z,16.99
2022-10-18T08:21:00.723Z,16.96
2022-10-18T08:21:59.706Z,16.93
2022-10-18T08:23:00.580Z,16.93
2022-10-18T08:24:00.006Z,16.96
2022-10-18T08:24:59.653Z,16.99
2022-10-18T08:25:59.663Z,17.00
2022-10-18T08:26:59.642Z,17.00
2022-10-18T08:27:59.695Z,16.95
2022-10-18T08:29:10.639Z,16.95
2022-10-18T08:30:00.693Z,16.90
2022-10-18T08:30:59.674Z,16.86
2022-10-18T08:31:59.604Z,16.86
2022-10-18T08:32:59.566Z,16.86
2022-10-18T08:33:59.805Z,16.83
2022-10-18T08:34:59.544Z,16.80
2022-10-18T08:35:59.529Z,16.74
2022-10-18T08:36:59.519Z,16.75
2022-10-18T08:37:59.524Z,16.78
2022-10-18T08:38:59.513Z,16.78
2022-10-18T08:39:59.486Z,16.78
2022-10-18T08:40:59.489Z,16.80
2022-10-18T08:41:59.465Z,16.77
2022-10-18T08:42:59.497Z,16.74
2022-10-18T08:44:01.074Z,16.70
2022-10-18T08:45:04.987Z,16.70
2022-10-18T08:46:00.428Z,16.73
2022-10-18T08:46:59.406Z,16.74
2022-10-18T08:47:59.700Z,16.75
2022-10-18T08:48:59.418Z,16.73
2022-10-18T08:49:59.368Z,16.73
2022-10-18T08:50:59.349Z,16.73
2022-10-18T08:51:59.367Z,16.74
2022-10-18T08:52:59.331Z,16.78
2022-10-18T08:53:59.335Z,16.83
2022-10-18T08:54:59.331Z,16.89
2022-10-18T08:55:59.322Z,16.95
2022-10-18T08:56:59.299Z,16.95
2022-10-18T08:57:59.282Z,16.99
2022-10-18T08:58:59.703Z,17.04
2022-10-18T08:59:59.276Z,17.06
2022-10-18T09:00:59.230Z,16.99
2022-10-18T09:01:59.231Z,16.96
2022-10-18T09:02:59.264Z,16.98
2022-10-18T09:03:59.201Z,16.96
2022-10-18T09:04:59.191Z,16.86
2022-10-18T09:05:59.227Z,16.89
2022-10-18T09:06:59.171Z,16.90
2022-10-18T09:07:59.163Z,16.86
2022-10-18T09:08:59.232Z,16.89
2022-10-18T09:09:59.133Z,16.92
2022-10-18T09:10:59.151Z,16.93
2022-10-18T09:12:01.897Z,16.98
2022-10-18T09:12:59.109Z,16.93
2022-10-18T09:13:59.131Z,16.99
2022-10-18T09:14:59.095Z,17.04
2022-10-18T09:15:59.087Z,17.07
2022-10-18T09:16:59.801Z,17.10
2022-10-18T09:17:59.046Z,17.20
2022-10-18T09:18:59.044Z,17.22
2022-10-18T09:20:59.133Z,17.40
2022-10-18T09:21:58.996Z,17.36
2022-10-18T09:22:59.034Z,17.48
2022-10-18T09:23:58.966Z,17.50
2022-10-18T09:24:58.957Z,17.44
2022-10-18T09:25:58.954Z,17.33
2022-10-18T09:26:58.933Z,17.33
2022-10-18T09:27:58.926Z,17.26
2022-10-18T09:28:59.076Z,17.25
2022-10-18T09:29:58.897Z,17.25
2022-10-18T09:30:59.785Z,17.29
2022-10-18T09:31:58.914Z,17.32
2022-10-18T09:32:59.018Z,17.36
2022-10-18T09:33:58.863Z,17.48
2022-10-18T09:34:58.876Z,17.51
2022-10-18T09:35:58.842Z,17.36
2022-10-18T09:36:58.819Z,17.40
2022-10-18T09:37:58.814Z,17.44
2022-10-18T09:39:00.398Z,17.46
2022-10-18T09:39:58.788Z,17.33
2022-10-18T09:40:58.799Z,17.32
2022-10-18T09:41:59.704Z,17.38
2022-10-18T09:42:58.762Z,17.47
2022-10-18T09:43:58.872Z,17.53
2022-10-18T09:44:58.722Z,17.55
2022-10-18T09:45:58.809Z,17.41
2022-10-18T09:46:58.717Z,17.41
2022-10-18T09:47:58.710Z,17.50
2022-10-18T09:48:58.683Z,17.59
2022-10-18T09:49:58.684Z,17.66
2022-10-18T09:50:58.653Z,17.55
2022-10-18T09:51:58.663Z,17.43
2022-10-18T09:52:58.636Z,17.48
2022-10-18T09:53:58.622Z,17.54
2022-10-18T09:54:58.633Z,17.59
2022-10-18T09:55:58.614Z,17.66
2022-10-18T09:56:58.597Z,17.63
2022-10-18T09:57:58.598Z,17.64
2022-10-18T09:58:58.583Z,17.62
2022-10-18T09:59:59.497Z,17.64
2022-10-18T10:00:58.564Z,17.69
2022-10-18T10:01:58.526Z,17.71
2022-10-18T10:02:58.525Z,17.79
2022-10-18T10:03:58.601Z,17.78
2022-10-18T10:04:58.533Z,17.85
2022-10-18T10:05:58.505Z,17.88
2022-10-18T10:06:58.467Z,17.79
2022-10-18T10:07:58.476Z,17.87
2022-10-18T10:08:58.530Z,17.92
2022-10-18T10:09:58.437Z,18.00
2022-10-18T10:10:58.467Z,17.91
2022-10-18T10:11:58.417Z,17.97
2022-10-18T10:12:58.398Z,17.97
2022-10-18T10:13:58.397Z,17.95
2022-10-18T10:14:58.401Z,17.94
2022-10-18T10:15:58.367Z,17.92
2022-10-18T10:16:58.359Z,17.82
2022-10-18T10:17:58.390Z,17.73
2022-10-18T10:18:58.331Z,17.79
2022-10-18T10:19:58.321Z,17.88
2022-10-18T10:20:58.995Z,17.91
2022-10-18T10:21:58.321Z,17.97
2022-10-18T10:22:58.281Z,17.99
2022-10-18T10:23:58.310Z,18.04
2022-10-18T10:24:58.411Z,18.19
2022-10-18T10:25:58.311Z,18.31
2022-10-18T10:26:58.344Z,18.52
2022-10-18T10:27:58.312Z,18.70
2022-10-18T10:28:58.311Z,18.79
2022-10-18T10:30:00.455Z,18.77
2022-10-18T10:30:58.192Z,18.64
2022-10-18T10:31:58.191Z,18.61
2022-10-18T10:32:58.193Z,18.59
2022-10-18T10:33:58.164Z,18.54
2022-10-18T10:34:58.146Z,18.55
2022-10-18T10:35:58.123Z,18.42
2022-10-18T10:36:58.172Z,18.40
2022-10-18T10:37:58.123Z,18.44
2022-10-18T10:38:58.124Z,18.43
2022-10-18T10:40:17.294Z,18.46
2022-10-18T10:40:59.075Z,18.43
2022-10-18T10:41:58.065Z,18.43
2022-10-18T10:43:08.789Z,18.44
2022-10-18T10:43:59.097Z,18.46
2022-10-18T10:44:58.038Z,18.52
2022-10-18T10:45:58.032Z,18.49
2022-10-18T10:46:58.043Z,18.52
2022-10-18T10:47:57.999Z,18.47
2022-10-18T10:49:20.761Z,18.50
2022-10-18T10:49:59.007Z,18.50
2022-10-18T10:50:57.966Z,18.42
2022-10-18T10:52:09.116Z,18.43
2022-10-18T10:52:59.038Z,18.40
2022-10-18T10:53:57.929Z,18.42
2022-10-18T10:55:06.181Z,18.39
2022-10-18T10:55:58.932Z,18.29
2022-10-18T10:56:57.902Z,18.36
2022-10-18T10:57:57.879Z,18.36
2022-10-18T10:58:57.953Z,18.42
2022-10-18T10:59:57.860Z,18.47
2022-10-18T11:00:57.992Z,18.54
2022-10-18T11:01:57.831Z,18.54
2022-10-18T11:03:06.046Z,18.55
2022-10-18T11:03:58.884Z,18.58
2022-10-18T11:04:57.819Z,18.61
2022-10-18T11:05:57.863Z,18.73
2022-10-18T11:06:58.050Z,18.72
2022-10-18T11:07:57.926Z,18.83
2022-10-18T11:08:57.810Z,18.82
2022-10-18T11:09:57.741Z,18.84
2022-10-18T11:10:57.762Z,18.90
2022-10-18T11:11:57.750Z,18.90
2022-10-18T11:12:57.783Z,18.94
2022-10-18T11:14:13.717Z,18.95
2022-10-18T11:14:58.703Z,19.01
2022-10-18T11:15:57.733Z,19.05
2022-10-18T11:16:57.887Z,19.15
2022-10-18T11:17:57.678Z,19.18
2022-10-18T11:18:57.703Z,19.21
2022-10-18T11:19:57.734Z,19.23
2022-10-18T11:20:57.725Z,19.28
2022-10-18T11:21:58.636Z,19.28
2022-10-18T11:22:58.715Z,19.35
2022-10-18T11:23:57.624Z,19.39
2022-10-18T11:24:57.575Z,19.35
2022-10-18T11:25:57.561Z,19.40
2022-10-18T11:26:57.555Z,19.53
2022-10-18T11:27:57.547Z,19.63
2022-10-18T11:28:57.635Z,19.58
2022-10-18T11:29:57.587Z,19.65
2022-10-18T11:30:57.528Z,19.73
2022-10-18T11:31:57.617Z,19.87
2022-10-18T11:32:57.518Z,19.93
2022-10-18T11:34:08.809Z,19.86
2022-10-18T11:34:58.545Z,19.88
2022-10-18T11:36:00.282Z,19.86
2022-10-18T11:37:22.855Z,19.79
2022-10-18T11:37:58.456Z,19.79
2022-10-18T11:38:57.410Z,19.78
2022-10-18T11:39:57.420Z,19.70
2022-10-18T11:40:57.578Z,19.58
2022-10-18T11:41:57.386Z,19.53
2022-10-18T11:42:57.412Z,19.42
2022-10-18T11:44:02.729Z,19.40
2022-10-18T11:44:58.456Z,19.46
2022-10-18T11:45:57.322Z,19.38
2022-10-18T11:46:57.381Z,19.38
2022-10-18T11:47:57.310Z,19.50
2022-10-18T11:48:57.306Z,19.50
2022-10-18T11:49:57.346Z,19.43
2022-10-18T11:50:57.292Z,19.51
2022-10-18T11:52:07.705Z,19.53
2022-10-18T11:52:58.253Z,19.55
2022-10-18T11:53:57.257Z,19.61
2022-10-18T11:54:57.242Z,19.55
2022-10-18T11:55:57.223Z,19.55
2022-10-18T11:56:57.197Z,19.47
2022-10-18T11:57:57.266Z,19.39
2022-10-18T11:58:57.177Z,19.35
2022-10-18T11:59:57.165Z,19.29
2022-10-18T12:00:57.419Z,19.28
2022-10-18T12:01:57.137Z,19.24
2022-10-18T12:02:57.225Z,19.24
2022-10-18T12:03:57.159Z,19.24
2022-10-18T12:05:22.188Z,19.21
2022-10-18T12:05:58.106Z,19.23
2022-10-18T12:06:57.088Z,19.36
2022-10-18T12:07:57.078Z,19.38
2022-10-18T12:08:57.093Z,19.39
2022-10-18T12:09:57.076Z,19.39
2022-10-18T12:11:05.070Z,19.40
2022-10-18T12:11:58.028Z,19.38
2022-10-18T12:12:57.009Z,19.40
2022-10-18T12:13:57.005Z,19.42
2022-10-18T12:14:57.058Z,19.39
2022-10-18T12:15:57.003Z,19.32
2022-10-18T12:17:19.050Z,19.35
2022-10-18T12:17:58.031Z,19.35
2022-10-18T12:18:56.965Z,19.32
2022-10-18T12:19:56.951Z,19.33
2022-10-18T12:20:56.940Z,19.25
2022-10-18T12:21:56.920Z,19.24
2022-10-18T12:22:56.893Z,19.25
2022-10-18T12:23:56.936Z,19.25
2022-10-18T12:24:56.975Z,19.25
2022-10-18T12:25:56.964Z,19.29
2022-10-18T12:26:56.892Z,19.24
2022-10-18T12:27:56.875Z,19.21
2022-10-18T12:28:56.903Z,19.17
2022-10-18T12:29:56.858Z,19.08
2022-10-18T12:30:56.803Z,19.08
2022-10-18T12:31:56.836Z,19.13
2022-10-18T12:33:03.698Z,19.15
2022-10-18T12:33:57.837Z,19.14
2022-10-18T12:34:56.776Z,19.10
2022-10-18T12:35:56.768Z,19.15
2022-10-18T12:36:56.768Z,19.21
2022-10-18T12:37:56.767Z,19.24
2022-10-18T12:38:56.719Z,19.23
2022-10-18T12:40:09.726Z,19.21
2022-10-18T12:40:57.796Z,19.21
2022-10-18T12:41:56.893Z,19.18
2022-10-18T12:42:56.717Z,19.17
2022-10-18T12:43:56.676Z,19.14
2022-10-18T12:44:56.648Z,19.15
2022-10-18T12:45:56.647Z,19.10
2022-10-18T12:46:56.629Z,19.11
2022-10-18T12:47:56.629Z,19.13
2022-10-18T12:48:56.685Z,19.11
2022-10-18T12:49:56.788Z,19.10
2022-10-18T12:50:56.580Z,19.02
2022-10-18T12:51:56.678Z,18.94
2022-10-18T12:52:56.560Z,18.87
2022-10-18T12:53:56.578Z,18.86
2022-10-18T12:54:56.573Z,18.91